createdAt,value
2022-11-13T00:00:06.499Z,1.80
2022-11-13T00:02:52.694Z,1.88
2022-11-13T00:05:38.569Z,1.92
2022-11-13T00:08:24.914Z,1.80
2022-11-13T00:11:15.104Z,1.92
2022-11-13T00:14:02.131Z,2.10
2022-11-13T00:16:47.986Z,2.00
2022-11-13T00:19:33.951Z,1.30
2022-11-13T00:22:19.840Z,1.40
2022-11-13T00:25:06.251Z,1.30
2022-11-13T00:27:52.446Z,1.35
2022-11-13T00:30:38.381Z,1.90
2022-11-13T00:33:45.522Z,2.20
2022-11-13T00:36:30.762Z,2.67
2022-11-13T00:39:16.589Z,2.78
2022-11-13T00:42:02.469Z,2.15
2022-11-13T00:44:48.321Z,2.80
2022-11-13T00:47:34.252Z,3.88
2022-11-13T00:50:20.281Z,4.78
2022-11-13T00:53:06.212Z,4.13
2022-11-13T00:55:52.560Z,4.28
2022-11-13T00:58:38.900Z,4.53
2022-11-13T01:01:24.787Z,4.25
2022-11-13T01:04:11.106Z,4.13
2022-11-13T01:06:57.434Z,3.95
2022-11-13T01:09:43.385Z,4.05
2022-11-13T01:12:29.770Z,5.43
2022-11-13T01:15:16.131Z,5.40
2022-11-13T01:18:02.018Z,5.50
2022-11-13T01:20:48.132Z,5.57
2022-11-13T01:23:34.422Z,5.00
2022-11-13T01:26:23.802Z,5.13
2022-11-13T01:29:10.579Z,5.72
2022-11-13T01:31:56.930Z,6.30
2022-11-13T01:34:42.931Z,5.82
2022-11-13T01:37:29.088Z,6.28
2022-11-13T01:40:15.657Z,6.63
2022-11-13T01:43:22.800Z,6.60
2022-11-13T01:46:36.582Z,8.38
2022-11-13T01:49:33.575Z,9.93
2022-11-13T01:52:33.467Z,10.07
2022-11-13T01:55:19.880Z,9.57
2022-11-13T01:58:08.536Z,8.82
2022-11-13T02:00:55.125Z,8.82
2022-11-13T02:03:41.390Z,8.45
2022-11-13T02:06:33.445Z,7.15
2022-11-13T02:09:24.849Z,7.70
2022-11-13T02:12:15.524Z,6.75
2022-11-13T02:15:05.307Z,5.90
2022-11-13T02:18:00.160Z,4.25
2022-11-13T02:21:00.750Z,4.47
2022-11-13T02:23:57.151Z,4.60
2022-11-13T02:26:44.873Z,5.18
2022-11-13T02:29:30.819Z,4.80
2022-11-13T02:32:17.185Z,5.15
2022-11-13T02:35:03.600Z,6.50
2022-11-13T02:37:49.879Z,6.07
2022-11-13T02:40:36.017Z,6.78
2022-11-13T02:43:21.946Z,6.55
2022-11-13T02:46:08.071Z,7.18
2022-11-13T02:48:54.258Z,7.05
2022-11-13T02:51:40.246Z,9.40
2022-11-13T02:54:26.122Z,8.13
2022-11-13T02:57:12.102Z,8.88
2022-11-13T02:59:58.157Z,9.38
2022-11-13T03:02:44.178Z,8.63
2022-11-13T03:05:30.258Z,7.80
2022-11-13T03:08:16.897Z,6.93
2022-11-13T03:11:08.854Z,7.38
2022-11-13T03:13:55.206Z,7.05
2022-11-13T03:16:41.719Z,7.35
2022-11-13T03:19:28.485Z,7.30
2022-11-13T03:22:14.777Z,6.38
2022-11-13T03:25:02.153Z,7.45
2022-11-13T03:27:51.171Z,7.88
2022-11-13T03:30:37.063Z,8.65
2022-11-13T03:33:23.241Z,9.23
2022-11-13T03:36:09.529Z,8.40
2022-11-13T03:38:55.791Z,7.13
2022-11-13T03:41:41.977Z,7.90
2022-11-13T03:44:27.914Z,7.50
2022-11-13T03:47:13.887Z,10.15
2022-11-13T03:49:59.958Z,10.80
2022-11-13T03:52:45.838Z,9.10
2022-11-13T03:55:31.887Z,9.20
2022-11-13T03:58:18.895Z,8.07
2022-11-13T04:01:04.739Z,9.10
2022-11-13T04:03:50.809Z,7.90
2022-11-13T04:06:37.494Z,7.50
2022-11-13T04:09:23.298Z,7.47
2022-11-13T04:12:09.580Z,7.53
2022-11-13T04:14:55.584Z,5.85
2022-11-13T04:17:41.658Z,6.63
2022-11-13T04:20:28.317Z,6.00
2022-11-13T04:23:16.007Z,5.80
2022-11-13T04:26:02.698Z,6.95
2022-11-13T04:28:48.988Z,6.25
2022-11-13T04:31:35.034Z,6.15
2022-11-13T04:34:21.185Z,6.38
2022-11-13T04:37:07.293Z,6.28
2022-11-13T04:39:53.399Z,6.63
2022-11-13T04:42:51.476Z,8.68
2022-11-13T04:45:37.475Z,7.85
2022-11-13T04:48:23.651Z,8.18
2022-11-13T04:51:09.534Z,7.10
2022-11-13T04:53:55.474Z,6.85
2022-11-13T04:56:41.947Z,7.63
2022-11-13T04:59:28.247Z,6.55
2022-11-13T05:02:14.156Z,6.13
2022-11-13T05:05:04.600Z,5.15
2022-11-13T05:07:51.128Z,4.25
2022-11-13T05:10:37.574Z,4.60
2022-11-13T05:13:23.707Z,4.13
2022-11-13T05:16:11.916Z,2.85
2022-11-13T05:18:59.369Z,2.10
2022-11-13T05:21:45.373Z,2.25
2022-11-13T05:24:32.176Z,2.90
2022-11-13T05:27:18.516Z,3.30
2022-11-13T05:30:04.998Z,3.60
2022-11-13T05:32:52.347Z,3.20
2022-11-13T05:35:38.349Z,5.10
2022-11-13T05:38:24.650Z,4.07
2022-11-13T05:41:13.139Z,4.55
2022-11-13T05:43:59.911Z,5.40
2022-11-13T05:46:45.996Z,5.03
2022-11-13T05:49:32.106Z,5.18
2022-11-13T05:52:18.371Z,5.90
2022-11-13T05:55:05.546Z,6.38
2022-11-13T05:57:51.735Z,6.18
2022-11-13T06:00:37.883Z,5.93
2022-11-13T06:03:23.933Z,5.90
2022-11-13T06:06:16.006Z,5.63
2022-11-13T06:09:04.774Z,6.55
2022-11-13T06:11:50.994Z,6.43
2022-11-13T06:14:37.111Z,5.90
2022-11-13T06:17:23.197Z,5.18
2022-11-13T06:20:09.663Z,6.38
2022-11-13T06:22:55.584Z,6.47
2022-11-13T06:25:41.846Z,6.20
2022-11-13T06:28:28.465Z,6.18
2022-11-13T06:31:17.871Z,6.35
2022-11-13T06:34:04.927Z,5.70
2022-11-13T06:36:51.156Z,6.03
2022-11-13T06:39:37.453Z,5.85
2022-11-13T06:42:23.554Z,5.35
2022-11-13T06:45:09.935Z,6.20
2022-11-13T06:47:55.807Z,5.78
2022-11-13T06:50:47.136Z,6.32
2022-11-13T06:53:34.475Z,6.10
2022-11-13T06:56:21.021Z,6.60
2022-11-13T06:59:08.575Z,6.03
2022-11-13T07:01:54.718Z,6.18
2022-11-13T07:04:40.502Z,6.70
2022-11-13T07:07:26.644Z,6.50
2022-11-13T07:10:12.894Z,6.43
2022-11-13T07:13:01.895Z,6.45
2022-11-13T07:15:47.918Z,6.22
2022-11-13T07:18:34.646Z,6.93
2022-11-13T07:21:22.505Z,6.10
2022-11-13T07:24:11.532Z,6.05
2022-11-13T07:27:01.627Z,5.80
2022-11-13T07:29:47.756Z,6.15
2022-11-13T07:32:34.022Z,5.82
2022-11-13T07:35:20.556Z,7.13
2022-11-13T07:38:07.002Z,6.70
2022-11-13T07:40:52.772Z,6.80
2022-11-13T07:43:38.602Z,6.55
2022-11-13T07:46:24.576Z,6.63
2022-11-13T07:49:10.532Z,7.65
2022-11-13T07:51:56.665Z,6.88
2022-11-13T07:54:42.662Z,7.28
2022-11-13T07:57:28.857Z,7.57
2022-11-13T08:00:15.667Z,7.88
2022-11-13T08:03:09.756Z,7.18
2022-11-13T08:06:02.337Z,8.15
2022-11-13T08:08:49.867Z,8.15
2022-11-13T08:11:36.561Z,8.32
2022-11-13T08:14:22.847Z,7.97
2022-11-13T08:17:08.952Z,7.57
2022-11-13T08:19:54.733Z,7.53
2022-11-13T08:22:40.667Z,7.60
2022-11-13T08:25:27.688Z,7.28
2022-11-13T08:28:13.956Z,6.70
2022-11-13T08:31:00.367Z,7.43
2022-11-13T08:33:46.546Z,7.43
2022-11-13T08:36:32.396Z,7.72
2022-11-13T08:39:18.413Z,7.82
2022-11-13T08:42:05.322Z,7.13
2022-11-13T08:44:51.153Z,6.75
2022-11-13T08:47:37.594Z,6.88
2022-11-13T08:50:23.507Z,6.80
2022-11-13T08:53:11.668Z,7.13
2022-11-13T08:56:02.038Z,6.68
2022-11-13T08:58:48.299Z,7.25
2022-11-13T09:01:34.180Z,7.25
2022-11-13T09:04:20.153Z,7.47
2022-11-13T09:07:06.278Z,8.02
2022-11-13T09:09:52.111Z,7.20
2022-11-13T09:12:38.278Z,7.28
2022-11-13T09:15:24.801Z,8.50
2022-11-13T09:18:10.809Z,7.85
2022-11-13T09:21:02.972Z,7.10
2022-11-13T09:23:49.005Z,7.70
2022-11-13T09:26:36.046Z,7.15
2022-11-13T09:29:23.460Z,8.10
2022-11-13T09:32:09.872Z,7.68
2022-11-13T09:34:56.039Z,7.97
2022-11-13T09:37:42.013Z,8.93
2022-11-13T09:40:33.806Z,7.95
2022-11-13T09:43:28.670Z,8.45
2022-11-13T09:46:18.916Z,8.45
2022-11-13T09:49:16.045Z,8.05
2022-11-13T09:52:40.335Z,8.57
2022-11-13T09:55:33.879Z,7.50
2022-11-13T09:58:30.725Z,7.60
2022-11-13T10:01:25.503Z,8.88
2022-11-13T10:04:14.650Z,8.05
2022-11-13T10:07:11.510Z,7.40
2022-11-13T10:10:28.438Z,8.15
2022-11-13T10:13:41.757Z,8.50
2022-11-13T10:16:36.226Z,8.02
2022-11-13T10:19:31.417Z,6.95
2022-11-13T10:22:32.983Z,6.72
2022-11-13T10:25:23.667Z,6.90
2022-11-13T10:31:24.308Z,6.93
2022-11-13T10:34:12.065Z,6.82
2022-11-13T10:37:35.743Z,6.60
2022-11-13T10:40:27.318Z,6.93
2022-11-13T10:43:14.728Z,7.55
2022-11-13T10:46:05.923Z,7.43
2022-11-13T10:48:52.563Z,7.78
2022-11-13T10:51:39.898Z,7.28
2022-11-13T10:54:35.156Z,7.10
2022-11-13T10:57:35.494Z,6.55
2022-11-13T11:00:35.039Z,7.72
2022-11-13T11:03:25.909Z,7.28
2022-11-13T11:06:11.993Z,7.55
2022-11-13T11:09:30.047Z,7.20
2022-11-13T11:12:30.321Z,7.68
2022-11-13T11:15:41.653Z,7.70
2022-11-13T11:18:37.837Z,7.47
2022-11-13T11:21:28.675Z,7.53
2022-11-13T11:24:28.546Z,7.32
2022-11-13T11:27:34.267Z,8.18
2022-11-13T11:30:23.288Z,7.28
2022-11-13T11:33:57.413Z,8.05
2022-11-13T11:36:49.516Z,7.97
2022-11-13T11:39:41.828Z,8.45
2022-11-13T11:42:30.687Z,8.52
2022-11-13T11:45:24.800Z,9.30
2022-11-13T11:48:18.087Z,8.95
2022-11-13T11:51:26.889Z,9.40
2022-11-13T11:54:34.567Z,9.63
2022-11-13T11:57:55.748Z,10.10
2022-11-13T12:00:50.209Z,10.90
2022-11-13T12:06:48.224Z,11.40
2022-11-13T12:14:12.368Z,12.93
2022-11-13T12:17:22.696Z,11.90
2022-11-13T12:20:47.465Z,12.63
2022-11-13T12:24:01.750Z,11.50
2022-11-13T12:27:13.545Z,12.55
2022-11-13T12:30:17.368Z,13.25
2022-11-13T12:33:40.178Z,12.25
2022-11-13T12:36:26.465Z,12.52
2022-11-13T12:39:21.707Z,12.45
2022-11-13T12:42:32.345Z,11.50
2022-11-13T12:45:36.781Z,10.63
2022-11-13T12:48:29.032Z,11.45
2022-11-13T12:51:17.926Z,11.10
2022-11-13T12:54:04.305Z,11.50
2022-11-13T12:56:50.383Z,12.32
2022-11-13T12:59:39.588Z,12.27
2022-11-13T13:03:03.455Z,12.00
2022-11-13T13:06:16.224Z,13.32
2022-11-13T13:09:39.692Z,13.82
2022-11-13T13:12:47.731Z,13.82
2022-11-13T13:15:39.725Z,14.05
2022-11-13T13:18:32.979Z,14.45
2022-11-13T13:21:21.021Z,14.95
2022-11-13T13:24:09.755Z,15.93
2022-11-13T13:26:56.483Z,16.63
2022-11-13T13:29:42.527Z,16.80
2022-11-13T13:32:45.325Z,18.08
2022-11-13T13:35:47.250Z,17.17
2022-11-13T13:38:56.835Z,18.20
2022-11-13T13:41:52.104Z,18.83
2022-11-13T13:45:22.364Z,19.70
2022-11-13T13:48:14.072Z,19.33
2022-11-13T13:51:01.218Z,18.92
2022-11-13T13:53:48.960Z,20.02
2022-11-13T13:56:40.625Z,20.27
2022-11-13T13:59:33.636Z,19.35
2022-11-13T14:02:23.389Z,21.13
2022-11-13T14:05:38.321Z,18.25
2022-11-13T14:08:26.716Z,20.40
2022-11-13T14:11:31.040Z,19.33
2022-11-13T14:14:23.039Z,20.90
2022-11-13T14:17:11.136Z,20.50
2022-11-13T14:20:01.131Z,20.33
2022-11-13T14:22:56.363Z,20.00
2022-11-13T14:25:43.905Z,19.40
2022-11-13T14:28:34.024Z,20.08
2022-11-13T14:31:20.592Z,20.08
2022-11-13T14:34:13.784Z,20.85
2022-11-13T14:37:21.814Z,20.20
2022-11-13T14:40:20.927Z,19.73
2022-11-13T14:43:08.600Z,20.33
2022-11-13T14:46:01.513Z,19.38
2022-11-13T14:48:54.134Z,19.97
2022-11-13T14:51:40.685Z,19.63
2022-11-13T14:55:13.164Z,19.35
2022-11-13T14:57:50.215Z,19.73
2022-11-13T15:00:37.985Z,20.48
2022-11-13T15:03:24.590Z,19.73
2022-11-13T15:06:19.532Z,19.23
2022-11-13T15:09:13.045Z,20.10
2022-11-13T15:11:59.223Z,19.10
2022-11-13T15:14:45.363Z,19.70
2022-11-13T15:17:31.583Z,20.52
2022-11-13T15:20:20.754Z,20.27
2022-11-13T15:23:13.048Z,20.60
2022-11-13T15:25:58.903Z,21.83
2022-11-13T15:28:45.183Z,20.13
2022-11-13T15:31:34.946Z,19.75
2022-11-13T15:34:21.019Z,20.88
2022-11-13T15:37:15.661Z,21.60
2022-11-13T15:42:47.505Z,22.90
2022-11-13T15:45:33.495Z,22.85
2022-11-13T15:48:19.360Z,22.33
2022-11-13T15:51:05.581Z,25.65
2022-11-13T15:53:59.904Z,24.20
2022-11-13T15:56:47.775Z,25.88
2022-11-13T15:59:33.771Z,24.48
2022-11-13T16:02:19.921Z,24.58
2022-11-13T16:05:06.435Z,24.35
2022-11-13T16:07:53.798Z,25.10
2022-11-13T16:10:39.657Z,25.55
2022-11-13T16:13:25.754Z,26.08
2022-11-13T16:16:24.055Z,26.88
2022-11-13T16:19:22.694Z,28.38
2022-11-13T16:22:19.054Z,28.13
2022-11-13T16:25:06.171Z,28.55
2022-11-13T16:27:52.891Z,29.05
2022-11-13T16:30:39.145Z,29.50
2022-11-13T16:33:25.292Z,29.65
2022-11-13T16:36:16.613Z,30.73
2022-11-13T16:39:03.543Z,31.33
2022-11-13T16:41:49.805Z,31.20
2022-11-13T16:44:35.857Z,32.88
2022-11-13T16:47:23.700Z,32.15
2022-11-13T16:50:33.533Z,32.42
2022-11-13T16:53:19.793Z,33.08
2022-11-13T16:56:29.075Z,35.72
2022-11-13T16:59:15.753Z,34.45
2022-11-13T17:02:02.003Z,34.08
2022-11-13T17:04:47.756Z,34.42
2022-11-13T17:07:34.199Z,34.60
2022-11-13T17:10:36.322Z,34.88
2022-11-13T17:13:22.229Z,34.03
2022-11-13T17:16:11.731Z,33.95
2022-11-13T17:18:59.255Z,35.22
2022-11-13T17:21:45.162Z,35.08
2022-11-13T17:24:31.244Z,35.63
2022-11-13T17:27:17.850Z,35.70
2022-11-13T17:30:04.394Z,34.53
2022-11-13T17:32:50.729Z,32.88
2022-11-13T17:35:36.566Z,35.55
2022-11-13T17:38:22.653Z,36.72
2022-11-13T17:41:10.934Z,35.40
2022-11-13T17:44:00.844Z,33.70
2022-11-13T17:46:48.285Z,33.50
2022-11-13T17:49:34.254Z,33.22
2022-11-13T17:52:20.306Z,34.67
2022-11-13T17:55:10.842Z,35.60
2022-11-13T17:58:00.161Z,35.35
2022-11-13T18:00:46.484Z,33.53
2022-11-13T18:03:32.744Z,33.17
2022-11-13T18:06:20.254Z,34.63
2022-11-13T18:09:06.662Z,32.83
2022-11-13T18:11:52.775Z,31.88
2022-11-13T18:14:38.743Z,33.70
2022-11-13T18:17:24.974Z,33.50
2022-11-13T18:20:11.171Z,32.47
2022-11-13T18:22:57.495Z,33.78
2022-11-13T18:25:43.713Z,32.22
2022-11-13T18:28:29.703Z,33.10
2022-11-13T18:31:19.061Z,32.67
2022-11-13T18:34:06.441Z,32.33
2022-11-13T18:36:52.842Z,32.30
2022-11-13T18:39:39.165Z,31.50
2022-11-13T18:42:25.574Z,32.58
2022-11-13T18:45:12.010Z,33.10
2022-11-13T18:47:58.040Z,32.42
2022-11-13T18:50:55.493Z,32.03
2022-11-13T18:53:43.704Z,33.88
2022-11-13T18:56:32.475Z,32.33
2022-11-13T18:59:18.655Z,31.45
2022-11-13T19:02:05.019Z,32.22
2022-11-13T19:04:51.087Z,33.20
2022-11-13T19:07:37.165Z,33.15
2022-11-13T19:10:22.958Z,32.83
2022-11-13T19:13:09.335Z,33.53
2022-11-13T19:15:55.823Z,32.92
2022-11-13T19:18:44.845Z,35.00
2022-11-13T19:21:32.944Z,34.15
2022-11-13T19:24:19.306Z,34.78
2022-11-13T19:27:05.314Z,32.78
2022-11-13T19:29:51.180Z,33.95
2022-11-13T19:32:37.372Z,32.63
2022-11-13T19:35:26.543Z,34.15
2022-11-13T19:38:12.592Z,32.92
2022-11-13T19:40:58.628Z,33.40
2022-11-13T19:43:48.755Z,33.78
2022-11-13T19:46:34.674Z,34.83
2022-11-13T19:49:20.867Z,34.53
2022-11-13T19:52:07.155Z,33.90
2022-11-13T19:54:53.347Z,35.03
2022-11-13T19:57:45.952Z,33.28
2022-11-13T20:00:32.345Z,34.40
2022-11-13T20:03:18.334Z,33.15
2022-11-13T20:06:04.591Z,34.10
2022-11-13T20:08:50.626Z,33.10
2022-11-13T20:11:36.814Z,32.47
2022-11-13T20:14:23.064Z,32.30
2022-11-13T20:17:09.075Z,32.13
2022-11-13T20:19:54.903Z,33.22
2022-11-13T20:22:40.905Z,31.63
2022-11-13T20:25:28.322Z,31.48
2022-11-13T20:28:14.208Z,32.35
2022-11-13T20:31:07.146Z,30.33
2022-11-13T20:33:55.929Z,29.63
2022-11-13T20:36:42.227Z,29.83
2022-11-13T20:39:27.985Z,28.77
2022-11-13T20:42:13.962Z,28.30
2022-11-13T20:45:01.483Z,27.40
2022-11-13T20:47:47.625Z,29.85
2022-11-13T20:50:37.667Z,27.50
2022-11-13T20:53:23.954Z,27.63
2022-11-13T20:56:10.822Z,27.60
2022-11-13T20:58:56.901Z,27.90
2022-11-13T21:01:43.146Z,27.08
2022-11-13T21:04:29.076Z,27.70
2022-11-13T21:07:15.337Z,27.33
2022-11-13T21:10:02.169Z,26.27
2022-11-13T21:12:48.027Z,26.48
2022-11-13T21:15:36.864Z,25.75
2022-11-13T21:18:23.196Z,26.13
2022-11-13T21:21:11.886Z,24.38
2022-11-13T21:23:59.137Z,25.67
2022-11-13T21:26:45.061Z,24.13
2022-11-13T21:29:31.091Z,24.27
2022-11-13T21:32:17.125Z,24.55
2022-11-13T21:35:03.089Z,25.00
2022-11-13T21:37:48.876Z,24.02
2022-11-13T21:40:34.785Z,23.88
2022-11-13T21:43:20.756Z,24.80
2022-11-13T21:46:07.555Z,22.60
2022-11-13T21:49:08.925Z,24.80
2022-11-13T21:51:55.141Z,23.10
2022-11-13T21:54:40.895Z,23.85
2022-11-13T21:57:27.285Z,23.63
2022-11-13T22:00:13.786Z,22.90
2022-11-13T22:02:59.959Z,24.58
2022-11-13T22:05:46.035Z,23.08
2022-11-13T22:08:32.407Z,21.85
2022-11-13T22:11:18.514Z,22.50
2022-11-13T22:14:05.587Z,22.13
2022-11-13T22:16:51.394Z,20.90
2022-11-13T22:19:37.564Z,21.52
2022-11-13T22:22:23.605Z,20.80
2022-11-13T22:25:09.834Z,20.35
2022-11-13T22:27:56.004Z,20.08
2022-11-13T22:30:45.335Z,20.05
2022-11-13T22:33:34.220Z,19.48
2022-11-13T22:36:23.104Z,19.13
2022-11-13T22:39:08.995Z,20.13
2022-11-13T22:41:55.216Z,19.27
2022-11-13T22:44:55.580Z,18.30
2022-11-13T22:47:42.838Z,18.45
2022-11-13T22:50:29.094Z,20.23
2022-11-13T22:53:15.658Z,19.63
2022-11-13T22:56:03.265Z,18.33
2022-11-13T22:58:49.784Z,18.70
2022-11-13T23:01:38.391Z,18.08
2022-11-13T23:04:24.375Z,18.83
2022-11-13T23:07:10.648Z,18.83
2022-11-13T23:09:56.481Z,17.58
2022-11-13T23:12:43.064Z,17.45
2022-11-13T23:15:29.394Z,17.38
2022-11-13T23:18:15.594Z,18.80
2022-11-13T23:21:01.559Z,17.55
2022-11-13T23:23:47.690Z,17.02
2022-11-13T23:26:33.626Z,18.05
2022-11-13T23:29:19.743Z,16.73
2022-11-13T23:32:05.603Z,17.85
2022-11-13T23:34:59.925Z,16.73
2022-11-13T23:37:47.203Z,16.75
2022-11-13T23:40:33.165Z,18.30
2022-11-13T23:43:19.094Z,17.42
2022-11-13T23:46:05.227Z,17.88
2022-11-13T23:48:51.351Z,18.85
2022-11-13T23:51:37.060Z,18.25
2022-11-13T23:54:23.360Z,18.83
2022-11-13T23:57:09.365Z,19.30
2022-11-13T23:59:55.176Z,19.35
